sensor_id;sensor_type;location;lat;lon;timestamp;temperature;humidity
21171;DHT22;10743;52.160;20.910;2023-04-25T00:02:24;27.60;36.30
21171;DHT22;10743;52.160;20.910;2023-04-25T00:04:52;27.60;36.30
21171;DHT22;10743;52.160;20.910;2023-04-25T00:07:19;27.60;36.30
21171;DHT22;10743;52.160;20.910;2023-04-25T00:09:46;27.60;36.50
21171;DHT22;10743;52.160;20.910;2023-04-25T00:12:13;27.60;36.40
21171;DHT22;10743;52.160;20.910;2023-04-25T00:14:42;27.60;36.50
21171;DHT22;10743;52.160;20.910;2023-04-25T00:17:09;27.60;36.50
21171;DHT22;10743;52.160;20.910;2023-04-25T00:19:36;27.60;36.70
21171;DHT22;10743;52.160;20.910;2023-04-25T00:22:04;27.60;36.70
21171;DHT22;10743;52.160;20.910;2023-04-25T00:24:32;27.60;36.70
21171;DHT22;10743;52.160;20.910;2023-04-25T00:26:59;27.60;36.80
21171;DHT22;10743;52.160;20.910;2023-04-25T00:29:26;27.50;36.80
21171;DHT22;10743;52.160;20.910;2023-04-25T00:31:53;27.50;36.80
21171;DHT22;10743;52.160;20.910;2023-04-25T00:34:20;27.50;36.90
21171;DHT22;10743;52.160;20.910;2023-04-25T00:36:47;27.50;36.90
21171;DHT22;10743;52.160;20.910;2023-04-25T00:39:14;27.50;37.60
21171;DHT22;10743;52.160;20.910;2023-04-25T00:41:41;27.50;37.80
21171;DHT22;10743;52.160;20.910;2023-04-25T00:44:09;27.50;37.20
21171;DHT22;10743;52.160;20.910;2023-04-25T00:46:39;27.50;37.20
21171;DHT22;10743;52.160;20.910;2023-04-25T00:49:06;27.50;37.30
21171;DHT22;10743;52.160;20.910;2023-04-25T00:51:34;27.50;37.50
21171;DHT22;10743;52.160;20.910;2023-04-25T00:54:02;27.50;37.50
21171;DHT22;10743;52.160;20.910;2023-04-25T00:56:30;27.50;37.90
21171;DHT22;10743;52.160;20.910;2023-04-25T00:58:57;27.50;38.10
21171;DHT22;10743;52.160;20.910;2023-04-25T01:01:24;27.50;38.30
21171;DHT22;10743;52.160;20.910;2023-04-25T01:03:53;27.50;38.50
21171;DHT22;10743;52.160;20.910;2023-04-25T01:06:21;27.50;38.60
21171;DHT22;10743;52.160;20.910;2023-04-25T01:08:49;27.40;38.70
21171;DHT22;10743;52.160;20.910;2023-04-25T01:11:16;27.50;38.90
21171;DHT22;10743;52.160;20.910;2023-04-25T01:13:43;27.50;39.00
21171;DHT22;10743;52.160;20.910;2023-04-25T01:16:10;27.50;38.90
21171;DHT22;10743;52.160;20.910;2023-04-25T01:18:41;27.40;38.80
21171;DHT22;10743;52.160;20.910;2023-04-25T01:21:11;27.50;39.10
21171;DHT22;10743;52.160;20.910;2023-04-25T01:23:41;27.40;39.00
21171;DHT22;10743;52.160;20.910;2023-04-25T01:26:09;27.40;38.90
21171;DHT22;10743;52.160;20.910;2023-04-25T01:28:39;27.40;39.00
21171;DHT22;10743;52.160;20.910;2023-04-25T01:31:09;27.50;39.10
21171;DHT22;10743;52.160;20.910;2023-04-25T01:33:37;27.40;39.80
21171;DHT22;10743;52.160;20.910;2023-04-25T01:36:05;27.40;39.20
21171;DHT22;10743;52.160;20.910;2023-04-25T01:38:34;27.40;39.10
21171;DHT22;10743;52.160;20.910;2023-04-25T01:41:02;27.40;39.20
21171;DHT22;10743;52.160;20.910;2023-04-25T01:43:29;27.40;39.20
21171;DHT22;10743;52.160;20.910;2023-04-25T01:45:57;27.40;39.40
21171;DHT22;10743;52.160;20.910;2023-04-25T01:48:24;27.30;39.20
21171;DHT22;10743;52.160;20.910;2023-04-25T01:50:52;27.30;39.30
21171;DHT22;10743;52.160;20.910;2023-04-25T01:53:19;27.30;39.50
21171;DHT22;10743;52.160;20.910;2023-04-25T01:55:47;27.30;39.50
21171;DHT22;10743;52.160;20.910;2023-04-25T01:58:16;27.30;39.50
21171;DHT22;10743;52.160;20.910;2023-04-25T02:01:04;27.30;39.60
21171;DHT22;10743;52.160;20.910;2023-04-25T02:03:39;27.30;39.50
21171;DHT22;10743;52.160;20.910;2023-04-25T02:06:11;27.30;39.40
21171;DHT22;10743;52.160;20.910;2023-04-25T02:08:43;27.30;39.40
21171;DHT22;10743;52.160;20.910;2023-04-25T02:11:12;27.30;39.60
21171;DHT22;10743;52.160;20.910;2023-04-25T02:13:46;27.30;39.60
21171;DHT22;10743;52.160;20.910;2023-04-25T02:16:22;27.30;39.40
21171;DHT22;10743;52.160;20.910;2023-04-25T02:18:49;27.30;39.40
21171;DHT22;10743;52.160;20.910;2023-04-25T02:21:19;27.30;39.40
21171;DHT22;10743;52.160;20.910;2023-04-25T02:23:46;27.30;39.10
21171;DHT22;10743;52.160;20.910;2023-04-25T02:26:15;27.30;39.30
21171;DHT22;10743;52.160;20.910;2023-04-25T02:28:42;27.30;40.00
21171;DHT22;10743;52.160;20.910;2023-04-25T02:31:09;27.30;39.00
21171;DHT22;10743;52.160;20.910;2023-04-25T02:33:37;27.30;39.10
21171;DHT22;10743;52.160;20.910;2023-04-25T02:36:05;27.30;39.20
21171;DHT22;10743;52.160;20.910;2023-04-25T02:38:33;27.30;39.30
21171;DHT22;10743;52.160;20.910;2023-04-25T02:41:00;27.30;39.30
21171;DHT22;10743;52.160;20.910;2023-04-25T02:43:27;27.20;39.30
21171;DHT22;10743;52.160;20.910;2023-04-25T02:45:54;27.30;39.40
21171;DHT22;10743;52.160;20.910;2023-04-25T02:48:21;27.20;39.30
21171;DHT22;10743;52.160;20.910;2023-04-25T02:50:48;27.20;39.30
21171;DHT22;10743;52.160;20.910;2023-04-25T02:53:15;27.20;39.30
21171;DHT22;10743;52.160;20.910;2023-04-25T02:55:48;27.10;39.30
21171;DHT22;10743;52.160;20.910;2023-04-25T02:58:16;27.10;39.50
21171;DHT22;10743;52.160;20.910;2023-04-25T03:00:46;27.10;39.50
21171;DHT22;10743;52.160;20.910;2023-04-25T03:03:14;27.10;39.60
21171;DHT22;10743;52.160;20.910;2023-04-25T03:05:44;27.10;39.80
21171;DHT22;10743;52.160;20.910;2023-04-25T03:08:14;27.10;39.40
21171;DHT22;10743;52.160;20.910;2023-04-25T03:10:42;27.10;39.70
21171;DHT22;10743;52.160;20.910;2023-04-25T03:13:10;27.00;39.70
21171;DHT22;10743;52.160;20.910;2023-04-25T03:15:40;27.00;39.60
21171;DHT22;10743;52.160;20.910;2023-04-25T03:18:07;27.00;39.80
21171;DHT22;10743;52.160;20.910;2023-04-25T03:20:34;27.00;39.80
21171;DHT22;10743;52.160;20.910;2023-04-25T03:23:02;27.00;39.70
21171;DHT22;10743;52.160;20.910;2023-04-25T03:25:29;26.90;39.80
21171;DHT22;10743;52.160;20.910;2023-04-25T03:27:57;27.00;39.60
21171;DHT22;10743;52.160;20.910;2023-04-25T03:30:24;26.90;39.80
21171;DHT22;10743;52.160;20.910;2023-04-25T03:32:52;26.90;39.60
21171;DHT22;10743;52.160;20.910;2023-04-25T03:35:19;27.00;40.00
21171;DHT22;10743;52.160;20.910;2023-04-25T03:37:47;27.00;39.80
21171;DHT22;10743;52.160;20.910;2023-04-25T03:40:19;26.90;39.90
21171;DHT22;10743;52.160;20.910;2023-04-25T03:43:06;26.90;39.70
21171;DHT22;10743;52.160;20.910;2023-04-25T03:45:35;26.90;39.60
21171;DHT22;10743;52.160;20.910;2023-04-25T03:48:02;26.90;39.90
21171;DHT22;10743;52.160;20.910;2023-04-25T03:50:30;26.90;39.80
21171;DHT22;10743;52.160;20.910;2023-04-25T03:52:57;26.90;39.80
21171;DHT22;10743;52.160;20.910;2023-04-25T03:55:26;26.90;39.70
21171;DHT22;10743;52.160;20.910;2023-04-25T03:57:53;26.90;39.70
21171;DHT22;10743;52.160;20.910;2023-04-25T04:00:21;26.90;39.80
21171;DHT22;10743;52.160;20.910;2023-04-25T04:02:51;26.90;39.90
21171;DHT22;10743;52.160;20.910;2023-04-25T04:05:18;26.90;39.90
21171;DHT22;10743;52.160;20.910;2023-04-25T04:07:52;26.90;39.90
21171;DHT22;10743;52.160;20.910;2023-04-25T04:10:19;26.90;39.80
21171;DHT22;10743;52.160;20.910;2023-04-25T04:12:46;26.90;40.00
21171;DHT22;10743;52.160;20.910;2023-04-25T04:15:13;26.90;40.00
21171;DHT22;10743;52.160;20.910;2023-04-25T04:17:43;26.90;40.00
21171;DHT22;10743;52.160;20.910;2023-04-25T04:20:10;26.90;40.20
21171;DHT22;10743;52.160;20.910;2023-04-25T04:22:40;26.90;40.00
21171;DHT22;10743;52.160;20.910;2023-04-25T04:25:10;26.90;40.00
21171;DHT22;10743;52.160;20.910;2023-04-25T04:27:56;26.90;40.00
21171;DHT22;10743;52.160;20.910;2023-04-25T04:30:33;26.90;41.00
21171;DHT22;10743;52.160;20.910;2023-04-25T04:33:05;26.90;40.40
21171;DHT22;10743;52.160;20.910;2023-04-25T04:35:33;26.90;40.30
21171;DHT22;10743;52.160;20.910;2023-04-25T04:38:00;26.90;40.60
21171;DHT22;10743;52.160;20.910;2023-04-25T04:40:32;26.90;40.70
21171;DHT22;10743;52.160;20.910;2023-04-25T04:43:25;26.90;40.70
21171;DHT22;10743;52.160;20.910;2023-04-25T04:46:05;26.90;40.70
21171;DHT22;10743;52.160;20.910;2023-04-25T04:48:53;26.80;40.80
21171;DHT22;10743;52.160;20.910;2023-04-25T04:51:38;26.80;40.70
21171;DHT22;10743;52.160;20.910;2023-04-25T04:54:28;26.80;40.70
21171;DHT22;10743;52.160;20.910;2023-04-25T04:57:13;26.80;40.70
21171;DHT22;10743;52.160;20.910;2023-04-25T05:00:10;26.80;40.80
21171;DHT22;10743;52.160;20.910;2023-04-25T05:02:47;26.80;40.80
21171;DHT22;10743;52.160;20.910;2023-04-25T05:05:39;26.80;40.90
21171;DHT22;10743;52.160;20.910;2023-04-25T05:08:27;26.70;40.90
21171;DHT22;10743;52.160;20.910;2023-04-25T05:11:14;26.70;40.90
21171;DHT22;10743;52.160;20.910;2023-04-25T05:14:01;26.80;41.00
21171;DHT22;10743;52.160;20.910;2023-04-25T05:16:54;26.70;41.40
21171;DHT22;10743;52.160;20.910;2023-04-25T05:19:32;26.80;40.50
21171;DHT22;10743;52.160;20.910;2023-04-25T05:22:19;26.70;40.60
21171;DHT22;10743;52.160;20.910;2023-04-25T05:25:05;26.70;40.20
21171;DHT22;10743;52.160;20.910;2023-04-25T05:27:56;26.70;40.30
21171;DHT22;10743;52.160;20.910;2023-04-25T05:30:42;26.70;40.70
21171;DHT22;10743;52.160;20.910;2023-04-25T05:33:14;26.70;40.30
21171;DHT22;10743;52.160;20.910;2023-04-25T05:35:42;26.70;40.50
21171;DHT22;10743;52.160;20.910;2023-04-25T05:38:10;26.70;40.30
21171;DHT22;10743;52.160;20.910;2023-04-25T05:40:57;26.70;40.40
21171;DHT22;10743;52.160;20.910;2023-04-25T05:43:43;26.70;40.40
21171;DHT22;10743;52.160;20.910;2023-04-25T05:46:24;26.70;40.60
21171;DHT22;10743;52.160;20.910;2023-04-25T05:49:11;26.80;40.70
21171;DHT22;10743;52.160;20.910;2023-04-25T05:51:53;26.80;40.30
21171;DHT22;10743;52.160;20.910;2023-04-25T05:54:40;26.80;40.40
21171;DHT22;10743;52.160;20.910;2023-04-25T05:57:07;26.80;40.30
21171;DHT22;10743;52.160;20.910;2023-04-25T05:59:34;26.80;40.40
21171;DHT22;10743;52.160;20.910;2023-04-25T06:02:01;26.80;40.40
21171;DHT22;10743;52.160;20.910;2023-04-25T06:04:32;26.80;40.20
21171;DHT22;10743;52.160;20.910;2023-04-25T06:07:00;26.80;40.50
21171;DHT22;10743;52.160;20.910;2023-04-25T06:09:27;26.80;40.30
21171;DHT22;10743;52.160;20.910;2023-04-25T06:11:54;26.80;40.20
21171;DHT22;10743;52.160;20.910;2023-04-25T06:14:21;26.80;40.30
21171;DHT22;10743;52.160;20.910;2023-04-25T06:16:54;26.80;40.60
21171;DHT22;10743;52.160;20.910;2023-04-25T06:19:21;26.80;41.10
21171;DHT22;10743;52.160;20.910;2023-04-25T06:21:48;26.80;40.30
21171;DHT22;10743;52.160;20.910;2023-04-25T06:24:15;26.80;40.30
21171;DHT22;10743;52.160;20.910;2023-04-25T06:26:42;26.70;40.10
21171;DHT22;10743;52.160;20.910;2023-04-25T06:29:09;26.70;40.10
21171;DHT22;10743;52.160;20.910;2023-04-25T06:31:36;26.70;40.10
21171;DHT22;10743;52.160;20.910;2023-04-25T06:34:04;26.60;40.00
21171;DHT22;10743;52.160;20.910;2023-04-25T06:36:34;26.60;40.00
21171;DHT22;10743;52.160;20.910;2023-04-25T06:39:06;26.60;40.00
21171;DHT22;10743;52.160;20.910;2023-04-25T06:41:34;26.60;40.00
21171;DHT22;10743;52.160;20.910;2023-04-25T06:44:05;26.60;40.10
21171;DHT22;10743;52.160;20.910;2023-04-25T06:46:38;26.50;39.80
21171;DHT22;10743;52.160;20.910;2023-04-25T06:49:05;26.50;39.90
21171;DHT22;10743;52.160;20.910;2023-04-25T06:51:33;26.40;40.10
21171;DHT22;10743;52.160;20.910;2023-04-25T06:56:35;26.30;39.70
21171;DHT22;10743;52.160;20.910;2023-04-25T06:59:13;26.20;40.50
21171;DHT22;10743;52.160;20.910;2023-04-25T07:01:42;26.20;40.60
21171;DHT22;10743;52.160;20.910;2023-04-25T07:04:14;26.20;40.90
21171;DHT22;10743;52.160;20.910;2023-04-25T07:06:49;26.20;40.90
21171;DHT22;10743;52.160;20.910;2023-04-25T07:09:20;26.10;40.60
21171;DHT22;10743;52.160;20.910;2023-04-25T07:11:49;26.10;41.30
21171;DHT22;10743;52.160;20.910;2023-04-25T07:14:16;26.10;41.30
21171;DHT22;10743;52.160;20.910;2023-04-25T07:16:44;26.10;41.40
21171;DHT22;10743;52.160;20.910;2023-04-25T07:19:12;26.10;41.30
21171;DHT22;10743;52.160;20.910;2023-04-25T07:21:39;26.10;41.40
21171;DHT22;10743;52.160;20.910;2023-04-25T07:24:06;26.10;41.30
21171;DHT22;10743;52.160;20.910;2023-04-25T07:26:39;26.10;41.60
21171;DHT22;10743;52.160;20.910;2023-04-25T07:29:35;26.10;41.50
21171;DHT22;10743;52.160;20.910;2023-04-25T07:32:04;26.10;41.50
21171;DHT22;10743;52.160;20.910;2023-04-25T07:34:31;26.10;41.60
21171;DHT22;10743;52.160;20.910;2023-04-25T07:42:00;26.10;40.50
21171;DHT22;10743;52.160;20.910;2023-04-25T07:44:29;26.10;41.50
21171;DHT22;10743;52.160;20.910;2023-04-25T07:47:06;26.00;41.20
21171;DHT22;10743;52.160;20.910;2023-04-25T07:49:34;26.00;41.20
21171;DHT22;10743;52.160;20.910;2023-04-25T07:52:04;26.00;41.10
21171;DHT22;10743;52.160;20.910;2023-04-25T07:54:34;26.00;41.20
21171;DHT22;10743;52.160;20.910;2023-04-25T07:57:10;26.00;41.10
21171;DHT22;10743;52.160;20.910;2023-04-25T07:59:37;26.00;41.30
21171;DHT22;10743;52.160;20.910;2023-04-25T08:02:05;26.00;41.20
21171;DHT22;10743;52.160;20.910;2023-04-25T08:07:06;26.00;40.70
21171;DHT22;10743;52.160;20.910;2023-04-25T08:09:44;26.10;41.20
21171;DHT22;10743;52.160;20.910;2023-04-25T08:12:21;26.10;40.30
21171;DHT22;10743;52.160;20.910;2023-04-25T08:14:50;26.10;40.90
21171;DHT22;10743;52.160;20.910;2023-04-25T08:17:17;26.00;40.90
21171;DHT22;10743;52.160;20.910;2023-04-25T08:19:44;26.10;40.80
21171;DHT22;10743;52.160;20.910;2023-04-25T08:22:21;26.00;40.70
21171;DHT22;10743;52.160;20.910;2023-04-25T08:24:58;26.00;40.70
21171;DHT22;10743;52.160;20.910;2023-04-25T08:29:56;26.00;40.00
21171;DHT22;10743;52.160;20.910;2023-04-25T08:32:24;26.00;40.50
21171;DHT22;10743;52.160;20.910;2023-04-25T08:35:09;26.00;40.50
21171;DHT22;10743;52.160;20.910;2023-04-25T08:37:36;26.00;40.50
21171;DHT22;10743;52.160;20.910;2023-04-25T08:40:13;26.00;40.30
21171;DHT22;10743;52.160;20.910;2023-04-25T08:43:00;25.90;39.70
21171;DHT22;10743;52.160;20.910;2023-04-25T08:45:31;25.90;40.20
21171;DHT22;10743;52.160;20.910;2023-04-25T08:48:00;25.80;40.00
21171;DHT22;10743;52.160;20.910;2023-04-25T08:50:27;25.80;40.20
21171;DHT22;10743;52.160;20.910;2023-04-25T08:52:59;25.80;40.30
21171;DHT22;10743;52.160;20.910;2023-04-25T08:55:31;25.80;40.60
21171;DHT22;10743;52.160;20.910;2023-04-25T08:57:59;25.80;40.70
21171;DHT22;10743;52.160;20.910;2023-04-25T09:00:28;25.80;40.50
21171;DHT22;10743;52.160;20.910;2023-04-25T09:02:56;25.80;40.70
21171;DHT22;10743;52.160;20.910;2023-04-25T09:05:28;25.80;40.70
21171;DHT22;10743;52.160;20.910;2023-04-25T09:07:55;25.80;40.50
21171;DHT22;10743;52.160;20.910;2023-04-25T09:10:23;25.80;40.70
21171;DHT22;10743;52.160;20.910;2023-04-25T09:13:08;25.80;40.60
21171;DHT22;10743;52.160;20.910;2023-04-25T09:15:58;25.80;40.40
21171;DHT22;10743;52.160;20.910;2023-04-25T09:18:39;25.80;40.50
21171;DHT22;10743;52.160;20.910;2023-04-25T09:21:14;25.80;40.30
21171;DHT22;10743;52.160;20.910;2023-04-25T09:23:46;25.80;40.30
21171;DHT22;10743;52.160;20.910;2023-04-25T09:26:18;25.80;40.60
21171;DHT22;10743;52.160;20.910;2023-04-25T09:31:23;25.80;39.40
21171;DHT22;10743;52.160;20.910;2023-04-25T09:34:00;25.80;40.80
21171;DHT22;10743;52.160;20.910;2023-04-25T09:36:34;25.70;40.90
21171;DHT22;10743;52.160;20.910;2023-04-25T09:39:20;25.70;40.40
21171;DHT22;10743;52.160;20.910;2023-04-25T09:41:59;25.70;40.40
21171;DHT22;10743;52.160;20.910;2023-04-25T09:44:26;25.70;40.30
21171;DHT22;10743;52.160;20.910;2023-04-25T09:46:54;25.70;40.30
21171;DHT22;10743;52.160;20.910;2023-04-25T09:49:25;25.70;40.30
21171;DHT22;10743;52.160;20.910;2023-04-25T09:52:15;25.60;40.50
21171;DHT22;10743;52.160;20.910;2023-04-25T09:55:04;25.60;40.70
21171;DHT22;10743;52.160;20.910;2023-04-25T09:57:33;25.60;40.70
21171;DHT22;10743;52.160;20.910;2023-04-25T10:00:03;25.60;40.60
21171;DHT22;10743;52.160;20.910;2023-04-25T10:02:42;25.70;40.60
21171;DHT22;10743;52.160;20.910;2023-04-25T10:05:34;25.70;40.40
21171;DHT22;10743;52.160;20.910;2023-04-25T10:08:03;25.70;40.50
21171;DHT22;10743;52.160;20.910;2023-04-25T10:10:32;25.60;40.40
21171;DHT22;10743;52.160;20.910;2023-04-25T10:13:04;25.60;40.50
21171;DHT22;10743;52.160;20.910;2023-04-25T10:15:34;25.60;40.60
21171;DHT22;10743;52.160;20.910;2023-04-25T10:18:06;25.60;40.70
21171;DHT22;10743;52.160;20.910;2023-04-25T10:20:33;25.60;40.50
21171;DHT22;10743;52.160;20.910;2023-04-25T10:23:14;25.60;40.70
21171;DHT22;10743;52.160;20.910;2023-04-25T10:25:42;25.60;40.70
21171;DHT22;10743;52.160;20.910;2023-04-25T10:28:09;25.70;41.10
21171;DHT22;10743;52.160;20.910;2023-04-25T10:33:17;25.70;40.40
21171;DHT22;10743;52.160;20.910;2023-04-25T10:35:45;25.70;41.30
21171;DHT22;10743;52.160;20.910;2023-04-25T10:38:14;25.70;41.00
21171;DHT22;10743;52.160;20.910;2023-04-25T10:40:41;25.70;40.90
21171;DHT22;10743;52.160;20.910;2023-04-25T10:43:45;25.70;40.60
21171;DHT22;10743;52.160;20.910;2023-04-25T10:46:26;25.70;40.60
21171;DHT22;10743;52.160;20.910;2023-04-25T10:48:59;25.70;40.60
21171;DHT22;10743;52.160;20.910;2023-04-25T10:51:32;25.70;40.70
21171;DHT22;10743;52.160;20.910;2023-04-25T10:54:22;25.80;40.60
21171;DHT22;10743;52.160;20.910;2023-04-25T10:56:52;25.80;40.70
21171;DHT22;10743;52.160;20.910;2023-04-25T10:59:19;25.80;40.80
21171;DHT22;10743;52.160;20.910;2023-04-25T11:01:51;25.80;40.70
21171;DHT22;10743;52.160;20.910;2023-04-25T11:04:24;25.80;40.90
21171;DHT22;10743;52.160;20.910;2023-04-25T11:07:13;25.90;40.20
21171;DHT22;10743;52.160;20.910;2023-04-25T11:09:47;25.80;40.70
21171;DHT22;10743;52.160;20.910;2023-04-25T11:12:14;25.90;40.20
21171;DHT22;10743;52.160;20.910;2023-04-25T11:14:43;25.90;40.10
21171;DHT22;10743;52.160;20.910;2023-04-25T11:17:10;25.90;40.10
21171;DHT22;10743;52.160;20.910;2023-04-25T11:19:37;25.90;40.10
21171;DHT22;10743;52.160;20.910;2023-04-25T11:22:04;25.90;40.10
21171;DHT22;10743;52.160;20.910;2023-04-25T11:24:34;25.90;39.90
21171;DHT22;10743;52.160;20.910;2023-04-25T11:27:03;25.90;39.90
21171;DHT22;10743;52.160;20.910;2023-04-25T11:29:33;26.00;39.60
21171;DHT22;10743;52.160;20.910;2023-04-25T11:32:01;26.00;39.60
21171;DHT22;10743;52.160;20.910;2023-04-25T11:34:30;26.00;39.70
21171;DHT22;10743;52.160;20.910;2023-04-25T11:36:59;26.00;39.50
21171;DHT22;10743;52.160;20.910;2023-04-25T11:39:30;26.00;39.60
21171;DHT22;10743;52.160;20.910;2023-04-25T11:41:57;26.00;39.60
21171;DHT22;10743;52.160;20.910;2023-04-25T11:44:28;26.10;39.70
21171;DHT22;10743;52.160;20.910;2023-04-25T11:46:55;26.10;39.40
21171;DHT22;10743;52.160;20.910;2023-04-25T11:49:22;26.10;39.10
21171;DHT22;10743;52.160;20.910;2023-04-25T11:51:51;26.00;38.40
21171;DHT22;10743;52.160;20.910;2023-04-25T11:54:18;26.10;39.00
21171;DHT22;10743;52.160;20.910;2023-04-25T11:56:45;26.10;39.10
21171;DHT22;10743;52.160;20.910;2023-04-25T11:59:13;26.10;39.70
21171;DHT22;10743;52.160;20.910;2023-04-25T12:01:48;26.10;39.20
21171;DHT22;10743;52.160;20.910;2023-04-25T12:04:18;26.10;39.20
21171;DHT22;10743;52.160;20.910;2023-04-25T12:06:49;26.10;39.20
21171;DHT22;10743;52.160;20.910;2023-04-25T12:09:19;26.10;39.20
21171;DHT22;10743;52.160;20.910;2023-04-25T12:11:55;26.10;39.20
21171;DHT22;10743;52.160;20.910;2023-04-25T12:14:27;26.10;39.90
21171;DHT22;10743;52.160;20.910;2023-04-25T12:16:57;26.10;38.90
21171;DHT22;10743;52.160;20.910;2023-04-25T12:19:25;26.10;38.70
21171;DHT22;10743;52.160;20.910;2023-04-25T12:21:53;26.10;38.60
21171;DHT22;10743;52.160;20.910;2023-04-25T12:24:26;26.10;38.40
21171;DHT22;10743;52.160;20.910;2023-04-25T12:27:05;26.10;38.50
21171;DHT22;10743;52.160;20.910;2023-04-25T12:29:35;26.10;38.50
21171;DHT22;10743;52.160;20.910;2023-04-25T12:32:05;26.10;38.60
21171;DHT22;10743;52.160;20.910;2023-04-25T12:34:32;25.90;37.60
21171;DHT22;10743;52.160;20.910;2023-04-25T12:37:01;26.00;38.20
21171;DHT22;10743;52.160;20.910;2023-04-25T12:39:28;26.00;38.00
21171;DHT22;10743;52.160;20.910;2023-04-25T12:41:55;26.00;38.00
21171;DHT22;10743;52.160;20.910;2023-04-25T12:44:22;26.00;38.10
21171;DHT22;10743;52.160;20.910;2023-04-25T12:46:49;26.00;37.50
21171;DHT22;10743;52.160;20.910;2023-04-25T12:49:16;25.90;38.00
21171;DHT22;10743;52.160;20.910;2023-04-25T12:51:45;26.00;38.00
21171;DHT22;10743;52.160;20.910;2023-04-25T12:54:12;25.90;37.60
21171;DHT22;10743;52.160;20.910;2023-04-25T12:56:41;25.90;38.20
21171;DHT22;10743;52.160;20.910;2023-04-25T12:59:08;26.00;38.00
21171;DHT22;10743;52.160;20.910;2023-04-25T13:01:36;25.90;37.80
21171;DHT22;10743;52.160;20.910;2023-04-25T13:06:31;25.90;37.80
21171;DHT22;10743;52.160;20.910;2023-04-25T13:08:58;25.90;38.50
21171;DHT22;10743;52.160;20.910;2023-04-25T13:11:25;26.00;38.40
21171;DHT22;10743;52.160;20.910;2023-04-25T13:13:52;26.00;38.50
21171;DHT22;10743;52.160;20.910;2023-04-25T13:16:20;26.00;38.50
21171;DHT22;10743;52.160;20.910;2023-04-25T13:18:48;26.00;38.70
21171;DHT22;10743;52.160;20.910;2023-04-25T13:21:15;26.00;38.50
21171;DHT22;10743;52.160;20.910;2023-04-25T13:23:42;26.00;38.50
21171;DHT22;10743;52.160;20.910;2023-04-25T13:26:09;26.00;38.70
21171;DHT22;10743;52.160;20.910;2023-04-25T13:28:36;26.10;38.70
21171;DHT22;10743;52.160;20.910;2023-04-25T13:31:05;26.10;38.70
21171;DHT22;10743;52.160;20.910;2023-04-25T13:33:32;26.10;38.70
21171;DHT22;10743;52.160;20.910;2023-04-25T13:36:01;26.10;38.60
21171;DHT22;10743;52.160;20.910;2023-04-25T13:38:28;26.10;38.70
21171;DHT22;10743;52.160;20.910;2023-04-25T13:40:55;26.10;38.40
21171;DHT22;10743;52.160;20.910;2023-04-25T13:45:50;26.10;38.00
21171;DHT22;10743;52.160;20.910;2023-04-25T13:48:18;26.10;38.50
21171;DHT22;10743;52.160;20.910;2023-04-25T13:50:46;26.10;38.50
21171;DHT22;10743;52.160;20.910;2023-04-25T13:53:13;26.20;38.90
21171;DHT22;10743;52.160;20.910;2023-04-25T13:55:40;26.10;38.90
21171;DHT22;10743;52.160;20.910;2023-04-25T13:58:07;26.10;39.00
21171;DHT22;10743;52.160;20.910;2023-04-25T14:00:37;26.20;38.80
21171;DHT22;10743;52.160;20.910;2023-04-25T14:05:36;26.20;38.80
21171;DHT22;10743;52.160;20.910;2023-04-25T14:08:08;26.20;38.80
21171;DHT22;10743;52.160;20.910;2023-04-25T14:10:36;26.10;39.40
21171;DHT22;10743;52.160;20.910;2023-04-25T14:15:34;26.10;38.80
21171;DHT22;10743;52.160;20.910;2023-04-25T14:18:01;26.20;39.60
21171;DHT22;10743;52.160;20.910;2023-04-25T14:25:25;26.20;38.90
21171;DHT22;10743;52.160;20.910;2023-04-25T14:27:52;26.10;39.60
21171;DHT22;10743;52.160;20.910;2023-04-25T14:30:20;26.20;39.60
21171;DHT22;10743;52.160;20.910;2023-04-25T14:32:49;26.10;38.80
21171;DHT22;10743;52.160;20.910;2023-04-25T14:35:16;26.20;39.00
21171;DHT22;10743;52.160;20.910;2023-04-25T14:37:44;26.20;39.70
21171;DHT22;10743;52.160;20.910;2023-04-25T14:40:12;26.20;39.60
21171;DHT22;10743;52.160;20.910;2023-04-25T14:45:09;26.10;38.80
21171;DHT22;10743;52.160;20.910;2023-04-25T14:47:37;26.20;38.90
21171;DHT22;10743;52.160;20.910;2023-04-25T14:50:06;26.20;39.50
21171;DHT22;10743;52.160;20.910;2023-04-25T14:52:33;26.20;39.60
21171;DHT22;10743;52.160;20.910;2023-04-25T14:55:01;26.20;39.70
21171;DHT22;10743;52.160;20.910;2023-04-25T14:57:32;26.20;39.70
21171;DHT22;10743;52.160;20.910;2023-04-25T15:00:00;26.20;40.40
21171;DHT22;10743;52.160;20.910;2023-04-25T15:04:56;26.10;39.30
21171;DHT22;10743;52.160;20.910;2023-04-25T15:07:23;26.10;40.00
21171;DHT22;10743;52.160;20.910;2023-04-25T15:09:50;26.10;39.90
21171;DHT22;10743;52.160;20.910;2023-04-25T15:12:19;26.10;40.10
21171;DHT22;10743;52.160;20.910;2023-04-25T15:14:47;26.10;40.20
21171;DHT22;10743;52.160;20.910;2023-04-25T15:17:14;26.10;39.80
21171;DHT22;10743;52.160;20.910;2023-04-25T15:19:41;26.10;39.70
21171;DHT22;10743;52.160;20.910;2023-04-25T15:22:08;26.00;39.60
21171;DHT22;10743;52.160;20.910;2023-04-25T15:24:36;26.00;39.60
21171;DHT22;10743;52.160;20.910;2023-04-25T15:27:03;26.00;39.40
21171;DHT22;10743;52.160;20.910;2023-04-25T15:29:31;25.80;38.80
21171;DHT22;10743;52.160;20.910;2023-04-25T15:31:58;25.90;39.30
21171;DHT22;10743;52.160;20.910;2023-04-25T15:34:25;25.90;39.30
21171;DHT22;10743;52.160;20.910;2023-04-25T15:39:19;25.90;38.80
21171;DHT22;10743;52.160;20.910;2023-04-25T15:41:47;25.80;39.30
21171;DHT22;10743;52.160;20.910;2023-04-25T15:44:14;25.80;39.20
21171;DHT22;10743;52.160;20.910;2023-04-25T15:46:41;25.80;39.30
21171;DHT22;10743;52.160;20.910;2023-04-25T15:49:09;25.80;39.60
21171;DHT22;10743;52.160;20.910;2023-04-25T15:51:36;25.80;39.70
21171;DHT22;10743;52.160;20.910;2023-04-25T15:54:04;25.80;39.60
21171;DHT22;10743;52.160;20.910;2023-04-25T15:56:31;25.80;39.50
21171;DHT22;10743;52.160;20.910;2023-04-25T15:58:58;25.70;39.60
21171;DHT22;10743;52.160;20.910;2023-04-25T16:01:25;25.70;39.60
21171;DHT22;10743;52.160;20.910;2023-04-25T16:03:57;25.70;39.50
21171;DHT22;10743;52.160;20.910;2023-04-25T16:06:25;25.70;39.70
21171;DHT22;10743;52.160;20.910;2023-04-25T16:08:53;25.60;39.60
21171;DHT22;10743;52.160;20.910;2023-04-25T16:11:20;25.60;39.70
21171;DHT22;10743;52.160;20.910;2023-04-25T16:13:47;25.60;39.60
21171;DHT22;10743;52.160;20.910;2023-04-25T16:16:15;25.60;39.50
21171;DHT22;10743;52.160;20.910;2023-04-25T16:18:42;25.50;39.20